sensor_id;sensor_type;location;lat;lon;timestamp;pressure;altitude;pressure_sealevel;temperature;humidity
31585;BME280;18191;51.288;12.390;2023-02-12T00:00:02;49154.06;;;-144.47;100.00
31585;BME280;18191;51.288;12.390;2023-02-12T00:04:53;49144.09;;;-144.47;99.53
31585;BME280;18191;51.288;12.390;2023-02-12T00:09:43;49158.03;;;-144.47;98.94
31585;BME280;18191;51.288;12.390;2023-02-12T00:14:33;49171.97;;;-144.47;98.53
31585;BME280;18191;51.288;12.390;2023-02-12T00:19:25;49167.97;;;-144.47;99.13
31585;BME280;18191;51.288;12.390;2023-02-12T00:24:15;49148.09;;;-144.47;98.65
31585;BME280;18191;51.288;12.390;2023-02-12T00:29:05;49150.06;;;-144.47;98.66
31585;BME280;18191;51.288;12.390;2023-02-12T00:33:56;49207.78;;;-144.47;98.83
31585;BME280;18191;51.288;12.390;2023-02-12T00:38:46;49156.03;;;-144.47;98.20
31585;BME280;18191;51.288;12.390;2023-02-12T00:43:37;49173.94;;;-144.47;98.10
31585;BME280;18191;51.288;12.390;2023-02-12T00:48:27;49166.00;;;-144.47;98.27
31585;BME280;18191;51.288;12.390;2023-02-12T00:53:17;49171.97;;;-144.47;99.02
31585;BME280;18191;51.288;12.390;2023-02-12T00:58:08;49171.97;;;-144.47;98.96
31585;BME280;18191;51.288;12.390;2023-02-12T01:02:59;49104.31;;;-144.47;99.14
31585;BME280;18191;51.288;12.390;2023-02-12T01:07:49;49144.09;;;-144.47;98.38
31585;BME280;18191;51.288;12.390;2023-02-12T01:12:40;49108.31;;;-144.47;98.75
31585;BME280;18191;51.288;12.390;2023-02-12T01:17:30;49221.69;;;-144.47;98.52
31585;BME280;18191;51.288;12.390;2023-02-12T01:22:21;49166.00;;;-144.47;96.74
31585;BME280;18191;51.288;12.390;2023-02-12T01:27:11;49152.06;;;-144.47;96.14
31585;BME280;18191;51.288;12.390;2023-02-12T01:32:01;49152.06;;;-144.47;96.71
31585;BME280;18191;51.288;12.390;2023-02-12T01:36:51;49171.97;;;-144.47;97.10
31585;BME280;18191;51.288;12.390;2023-02-12T01:41:42;49187.88;;;-144.47;97.09
31585;BME280;18191;51.288;12.390;2023-02-12T01:46:32;49152.06;;;-144.47;98.18
31585;BME280;18191;51.288;12.390;2023-02-12T01:51:23;49146.09;;;-144.47;98.31
31585;BME280;18191;51.288;12.390;2023-02-12T01:56:13;49158.03;;;-144.47;98.36
31585;BME280;18191;51.288;12.390;2023-02-12T02:01:05;49144.09;;;-144.47;98.48
31585;BME280;18191;51.288;12.390;2023-02-12T02:06:00;49181.91;;;-144.47;98.69
31585;BME280;18191;51.288;12.390;2023-02-12T02:10:51;49175.94;;;-144.47;98.56
31585;BME280;18191;51.288;12.390;2023-02-12T02:15:42;49181.91;;;-144.47;98.69
31585;BME280;18191;51.288;12.390;2023-02-12T02:25:43;49152.06;;;-144.47;98.12
31585;BME280;18191;51.288;12.390;2023-02-12T02:30:39;49156.03;;;-144.47;98.23
31585;BME280;18191;51.288;12.390;2023-02-12T02:35:39;49138.16;;;-144.47;98.42
31585;BME280;18191;51.288;12.390;2023-02-12T02:40:34;49156.03;;;-144.47;98.02
31585;BME280;18191;51.288;12.390;2023-02-12T02:45:36;49193.84;;;-144.47;98.01
31585;BME280;18191;51.288;12.390;2023-02-12T02:50:29;49148.09;;;-144.47;98.22
31585;BME280;18191;51.288;12.390;2023-02-12T02:55:21;49134.16;;;-144.47;98.19
31585;BME280;18191;51.288;12.390;2023-02-12T03:00:14;49160.03;;;-144.47;98.29
31585;BME280;18191;51.288;12.390;2023-02-12T03:09:58;49156.03;;;-144.47;98.11
31585;BME280;18191;51.288;12.390;2023-02-12T03:14:52;49156.03;;;-144.47;98.51
31585;BME280;18191;51.288;12.390;2023-02-12T03:19:45;49193.84;;;-144.47;98.11
31585;BME280;18191;51.288;12.390;2023-02-12T03:29:29;49187.88;;;-144.47;97.92
31585;BME280;18191;51.288;12.390;2023-02-12T03:34:29;49160.03;;;-144.47;97.83
31585;BME280;18191;51.288;12.390;2023-02-12T03:39:33;49160.03;;;-144.47;97.89
31585;BME280;18191;51.288;12.390;2023-02-12T03:44:33;49199.81;;;-144.47;97.61
31585;BME280;18191;51.288;12.390;2023-02-12T03:49:30;49136.16;;;-144.47;98.21
31585;BME280;18191;51.288;12.390;2023-02-12T03:54:22;49156.03;;;-144.47;98.71
31585;BME280;18191;51.288;12.390;2023-02-12T03:59:13;49162.00;;;-144.47;98.68
31585;BME280;18191;51.288;12.390;2023-02-12T04:04:05;49183.91;;;-144.47;98.36
31585;BME280;18191;51.288;12.390;2023-02-12T04:08:56;49116.25;;;-144.47;97.90
31585;BME280;18191;51.288;12.390;2023-02-12T04:13:53;49160.03;;;-144.47;98.12
31585;BME280;18191;51.288;12.390;2023-02-12T04:18:47;49138.16;;;-144.47;98.22
31585;BME280;18191;51.288;12.390;2023-02-12T04:33:46;49195.84;;;-144.47;97.93
31585;BME280;18191;51.288;12.390;2023-02-12T04:38:42;49193.84;;;-144.47;97.34
31585;BME280;18191;51.288;12.390;2023-02-12T04:43:35;49164.00;;;-144.47;97.99
31585;BME280;18191;51.288;12.390;2023-02-12T04:48:25;49215.72;;;-144.47;98.10
31585;BME280;18191;51.288;12.390;2023-02-12T04:53:15;49169.97;;;-144.47;97.68
31585;BME280;18191;51.288;12.390;2023-02-12T04:58:06;49144.09;;;-144.47;98.12
31585;BME280;18191;51.288;12.390;2023-02-12T05:02:56;49171.97;;;-144.47;97.82
31585;BME280;18191;51.288;12.390;2023-02-12T05:07:46;49152.06;;;-144.47;98.17
31585;BME280;18191;51.288;12.390;2023-02-12T05:12:37;49199.81;;;-144.47;98.51
31585;BME280;18191;51.288;12.390;2023-02-12T05:17:27;49167.97;;;-144.47;98.42
31585;BME280;18191;51.288;12.390;2023-02-12T05:22:17;49167.97;;;-144.47;97.92
31585;BME280;18191;51.288;12.390;2023-02-12T05:27:07;49167.97;;;-144.47;97.88
31585;BME280;18191;51.288;12.390;2023-02-12T05:31:58;49189.88;;;-144.47;98.22
31585;BME280;18191;51.288;12.390;2023-02-12T05:36:48;49195.84;;;-144.47;98.23
31585;BME280;18191;51.288;12.390;2023-02-12T05:41:38;49148.09;;;-144.47;98.39
31585;BME280;18191;51.288;12.390;2023-02-12T05:46:28;49179.91;;;-144.47;98.98
31585;BME280;18191;51.288;12.390;2023-02-12T05:51:20;49152.06;;;-144.47;98.95
31585;BME280;18191;51.288;12.390;2023-02-12T05:56:12;49148.09;;;-144.47;99.10
31585;BME280;18191;51.288;12.390;2023-02-12T06:01:07;49140.13;;;-144.47;99.19
31585;BME280;18191;51.288;12.390;2023-02-12T06:05:57;49179.91;;;-144.47;98.18
31585;BME280;18191;51.288;12.390;2023-02-12T06:10:48;49171.97;;;-144.47;98.82
31585;BME280;18191;51.288;12.390;2023-02-12T06:15:38;49167.97;;;-144.47;97.63
31585;BME280;18191;51.288;12.390;2023-02-12T06:20:28;49152.06;;;-144.47;97.81
31585;BME280;18191;51.288;12.390;2023-02-12T06:25:18;49162.00;;;-144.47;98.08
31585;BME280;18191;51.288;12.390;2023-02-12T06:30:09;49146.09;;;-144.47;98.57
31585;BME280;18191;51.288;12.390;2023-02-12T06:34:59;49152.06;;;-144.47;98.57
31585;BME280;18191;51.288;12.390;2023-02-12T06:39:49;49203.78;;;-144.47;97.98
31585;BME280;18191;51.288;12.390;2023-02-12T06:44:39;49167.97;;;-144.47;98.04
31585;BME280;18191;51.288;12.390;2023-02-12T06:49:29;49150.06;;;-144.47;97.46
31585;BME280;18191;51.288;12.390;2023-02-12T06:54:20;49241.59;;;-144.47;97.68
31585;BME280;18191;51.288;12.390;2023-02-12T06:59:12;49177.94;;;-144.47;97.86
31585;BME280;18191;51.288;12.390;2023-02-12T07:04:03;49160.03;;;-144.47;97.94
31585;BME280;18191;51.288;12.390;2023-02-12T07:08:53;49181.91;;;-144.47;97.52
31585;BME280;18191;51.288;12.390;2023-02-12T07:13:44;49175.94;;;-144.47;97.58
31585;BME280;18191;51.288;12.390;2023-02-12T07:18:35;49191.84;;;-144.47;97.60
31585;BME280;18191;51.288;12.390;2023-02-12T07:23:25;49189.88;;;-144.47;97.86
31585;BME280;18191;51.288;12.390;2023-02-12T07:28:15;49205.78;;;-144.47;97.89
31585;BME280;18191;51.288;12.390;2023-02-12T07:33:05;49152.06;;;-144.47;97.93
31585;BME280;18191;51.288;12.390;2023-02-12T07:37:55;49171.97;;;-144.47;97.75
31585;BME280;18191;51.288;12.390;2023-02-12T07:42:45;49179.91;;;-144.47;97.76
31585;BME280;18191;51.288;12.390;2023-02-12T07:47:38;49179.91;;;-144.47;97.49
31585;BME280;18191;51.288;12.390;2023-02-12T07:52:29;49166.00;;;-144.47;97.52
31585;BME280;18191;51.288;12.390;2023-02-12T07:57:19;49166.00;;;-144.47;97.83
31585;BME280;18191;51.288;12.390;2023-02-12T08:02:10;49158.03;;;-144.47;97.93
31585;BME280;18191;51.288;12.390;2023-02-12T08:07:00;49177.94;;;-144.47;97.83
31585;BME280;18191;51.288;12.390;2023-02-12T08:11:51;49152.06;;;-144.47;97.59
31585;BME280;18191;51.288;12.390;2023-02-12T08:16:42;49183.91;;;-144.47;96.72
31585;BME280;18191;51.288;12.390;2023-02-12T08:21:33;49169.97;;;-144.47;96.69
31585;BME280;18191;51.288;12.390;2023-02-12T08:31:15;49173.94;;;-144.47;96.69
31585;BME280;18191;51.288;12.390;2023-02-12T08:36:08;49171.97;;;-144.47;96.37
31585;BME280;18191;51.288;12.390;2023-02-12T08:40:59;49187.88;;;-144.47;95.75
31585;BME280;18191;51.288;12.390;2023-02-12T08:45:50;49187.88;;;-144.47;95.76
31585;BME280;18191;51.288;12.390;2023-02-12T08:50:40;49179.91;;;-144.47;94.36
31585;BME280;18191;51.288;12.390;2023-02-12T08:55:30;49124.22;;;-144.47;94.97
31585;BME280;18191;51.288;12.390;2023-02-12T09:00:21;49191.84;;;-144.47;94.81
31585;BME280;18191;51.288;12.390;2023-02-12T09:05:11;49177.94;;;-144.47;93.01
31585;BME280;18191;51.288;12.390;2023-02-12T09:10:02;49203.78;;;-144.47;93.66
31585;BME280;18191;51.288;12.390;2023-02-12T09:14:52;49148.09;;;-144.47;95.12
31585;BME280;18191;51.288;12.390;2023-02-12T09:19:42;49173.94;;;-144.47;94.13
31585;BME280;18191;51.288;12.390;2023-02-12T09:24:32;49162.00;;;-144.47;92.87
31585;BME280;18191;51.288;12.390;2023-02-12T09:29:22;49211.75;;;-144.47;93.08
31585;BME280;18191;51.288;12.390;2023-02-12T09:34:13;49195.84;;;-144.47;93.44
31585;BME280;18191;51.288;12.390;2023-02-12T09:39:03;49175.94;;;-144.47;93.35
31585;BME280;18191;51.288;12.390;2023-02-12T09:44:05;49175.94;;;-144.47;90.16
31585;BME280;18191;51.288;12.390;2023-02-12T09:49:00;49187.88;;;-144.47;90.53
31585;BME280;18191;51.288;12.390;2023-02-12T09:54:00;49187.88;;;-144.47;89.81
31585;BME280;18191;51.288;12.390;2023-02-12T09:58:52;49215.72;;;-144.47;90.71
31585;BME280;18191;51.288;12.390;2023-02-12T10:03:44;49144.09;;;-144.47;91.80
31585;BME280;18191;51.288;12.390;2023-02-12T10:13:46;49162.00;;;-144.47;89.49
31585;BME280;18191;51.288;12.390;2023-02-12T10:28:32;49175.94;;;-144.47;91.83
31585;BME280;18191;51.288;12.390;2023-02-12T10:38:18;49167.97;;;-144.47;93.13
31585;BME280;18191;51.288;12.390;2023-02-12T10:43:09;49191.84;;;-144.47;93.37
31585;BME280;18191;51.288;12.390;2023-02-12T10:48:03;49191.84;;;-144.47;93.32
31585;BME280;18191;51.288;12.390;2023-02-12T10:52:55;49179.91;;;-144.47;93.04
31585;BME280;18191;51.288;12.390;2023-02-12T10:57:45;49177.94;;;-144.47;90.98
31585;BME280;18191;51.288;12.390;2023-02-12T11:02:35;49148.09;;;-144.47;92.94
31585;BME280;18191;51.288;12.390;2023-02-12T11:07:26;49144.09;;;-144.47;92.59
31585;BME280;18191;51.288;12.390;2023-02-12T11:12:21;49169.97;;;-144.47;91.40
31585;BME280;18191;51.288;12.390;2023-02-12T11:17:17;49160.03;;;-144.47;88.59
31585;BME280;18191;51.288;12.390;2023-02-12T11:22:09;49199.81;;;-144.47;87.63
31585;BME280;18191;51.288;12.390;2023-02-12T11:27:19;49144.09;;;-144.47;87.85
31585;BME280;18191;51.288;12.390;2023-02-12T11:32:14;49199.81;;;-144.47;88.40
31585;BME280;18191;51.288;12.390;2023-02-12T11:37:09;49183.91;;;-144.47;88.79
31585;BME280;18191;51.288;12.390;2023-02-12T11:42:22;49205.78;;;-144.47;89.31
31585;BME280;18191;51.288;12.390;2023-02-12T11:47:20;49160.03;;;-144.47;88.76
31585;BME280;18191;51.288;12.390;2023-02-12T11:52:22;49199.81;;;-144.47;90.01
31585;BME280;18191;51.288;12.390;2023-02-12T12:02:27;49191.84;;;-144.47;92.03
31585;BME280;18191;51.288;12.390;2023-02-12T12:07:21;49171.97;;;-144.47;91.72
31585;BME280;18191;51.288;12.390;2023-02-12T12:12:19;49191.84;;;-144.47;91.02
31585;BME280;18191;51.288;12.390;2023-02-12T12:17:12;49167.97;;;-144.47;89.50
31585;BME280;18191;51.288;12.390;2023-02-12T12:22:26;49171.97;;;-144.47;89.73
31585;BME280;18191;51.288;12.390;2023-02-12T12:27:21;49191.84;;;-144.47;90.42
31585;BME280;18191;51.288;12.390;2023-02-12T12:32:33;49175.94;;;-144.47;91.14
31585;BME280;18191;51.288;12.390;2023-02-12T12:37:47;49213.75;;;-144.47;91.07
31585;BME280;18191;51.288;12.390;2023-02-12T12:52:46;49203.78;;;-144.47;91.70
31585;BME280;18191;51.288;12.390;2023-02-12T12:57:55;49164.00;;;-144.47;92.52
31585;BME280;18191;51.288;12.390;2023-02-12T13:07:42;49169.97;;;-144.47;92.25
31585;BME280;18191;51.288;12.390;2023-02-12T13:13:19;49171.97;;;-144.47;91.19
31585;BME280;18191;51.288;12.390;2023-02-12T13:17:56;49187.88;;;-144.47;91.40
31585;BME280;18191;51.288;12.390;2023-02-12T13:22:58;49110.28;;;-144.47;92.14
31585;BME280;18191;51.288;12.390;2023-02-12T13:27:50;49167.97;;;-144.47;91.28
31585;BME280;18191;51.288;12.390;2023-02-12T13:32:43;49183.91;;;-144.47;90.69
31585;BME280;18191;51.288;12.390;2023-02-12T13:37:40;49183.91;;;-144.47;90.27
31585;BME280;18191;51.288;12.390;2023-02-12T13:47:33;49134.16;;;-144.47;89.59
31585;BME280;18191;51.288;12.390;2023-02-12T13:52:32;49175.94;;;-144.47;90.60
31585;BME280;18191;51.288;12.390;2023-02-12T13:57:26;49209.75;;;-144.47;90.70
31585;BME280;18191;51.288;12.390;2023-02-12T14:02:26;49187.88;;;-144.47;89.25
31585;BME280;18191;51.288;12.390;2023-02-12T14:07:17;49148.09;;;-144.47;89.17
31585;BME280;18191;51.288;12.390;2023-02-12T14:12:10;49160.03;;;-144.47;88.55
31585;BME280;18191;51.288;12.390;2023-02-12T14:22:13;49203.78;;;-144.47;87.10
31585;BME280;18191;51.288;12.390;2023-02-12T14:27:31;49166.00;;;-144.47;88.37
31585;BME280;18191;51.288;12.390;2023-02-12T14:37:32;49195.84;;;-144.47;89.08
31585;BME280;18191;51.288;12.390;2023-02-12T14:47:15;49203.78;;;-144.47;88.43
31585;BME280;18191;51.288;12.390;2023-02-12T14:52:28;49148.09;;;-144.47;89.85
31585;BME280;18191;51.288;12.390;2023-02-12T14:57:27;49179.91;;;-144.47;88.56
31585;BME280;18191;51.288;12.390;2023-02-12T15:02:28;49171.97;;;-144.47;88.66
31585;BME280;18191;51.288;12.390;2023-02-12T15:07:26;49219.72;;;-144.47;88.97
31585;BME280;18191;51.288;12.390;2023-02-12T15:12:24;49213.75;;;-144.47;89.37
31585;BME280;18191;51.288;12.390;2023-02-12T15:17:20;49197.81;;;-144.47;89.35
31585;BME280;18191;51.288;12.390;2023-02-12T15:22:18;49195.84;;;-144.47;89.31
31585;BME280;18191;51.288;12.390;2023-02-12T15:27:09;49175.94;;;-144.47;89.91
31585;BME280;18191;51.288;12.390;2023-02-12T15:32:03;49195.84;;;-144.47;90.36
31585;BME280;18191;51.288;12.390;2023-02-12T15:36:58;49207.78;;;-144.47;90.61
31585;BME280;18191;51.288;12.390;2023-02-12T15:41:49;49179.91;;;-144.47;90.98
31585;BME280;18191;51.288;12.390;2023-02-12T15:46:39;49203.78;;;-144.47;91.16
31585;BME280;18191;51.288;12.390;2023-02-12T15:51:41;49207.78;;;-144.47;91.42
31585;BME280;18191;51.288;12.390;2023-02-12T15:56:31;49193.84;;;-144.47;91.77
31585;BME280;18191;51.288;12.390;2023-02-12T16:01:23;49173.94;;;-144.47;92.20
31585;BME280;18191;51.288;12.390;2023-02-12T16:06:14;49209.75;;;-144.47;92.60
31585;BME280;18191;51.288;12.390;2023-02-12T16:11:06;49195.84;;;-144.47;92.82
31585;BME280;18191;51.288;12.390;2023-02-12T16:16:04;49173.94;;;-144.47;92.98
31585;BME280;18191;51.288;12.390;2023-02-12T16:21:05;49179.91;;;-144.47;93.30
31585;BME280;18191;51.288;12.390;2023-02-12T16:25:59;49179.91;;;-144.47;93.69
31585;BME280;18191;51.288;12.390;2023-02-12T16:30:49;49191.84;;;-144.47;93.88
31585;BME280;18191;51.288;12.390;2023-02-12T16:35:40;49156.03;;;-144.47;93.70
31585;BME280;18191;51.288;12.390;2023-02-12T16:40:31;49207.78;;;-144.47;94.00
31585;BME280;18191;51.288;12.390;2023-02-12T16:50:16;49150.06;;;-144.47;94.22
31585;BME280;18191;51.288;12.390;2023-02-12T16:55:12;49185.88;;;-144.47;95.01
31585;BME280;18191;51.288;12.390;2023-02-12T17:00:03;49171.97;;;-144.47;94.87
31585;BME280;18191;51.288;12.390;2023-02-12T17:04:54;49173.94;;;-144.47;95.29
31585;BME280;18191;51.288;12.390;2023-02-12T17:09:44;49179.91;;;-144.47;95.49
31585;BME280;18191;51.288;12.390;2023-02-12T17:14:34;49193.84;;;-144.47;95.33
31585;BME280;18191;51.288;12.390;2023-02-12T17:19:24;49183.91;;;-144.47;95.32
31585;BME280;18191;51.288;12.390;2023-02-12T17:24:17;49187.88;;;-144.47;95.37
31585;BME280;18191;51.288;12.390;2023-02-12T17:29:08;49197.81;;;-144.47;95.78
31585;BME280;18191;51.288;12.390;2023-02-12T17:33:58;49144.09;;;-144.47;96.02
31585;BME280;18191;51.288;12.390;2023-02-12T17:38:49;49195.84;;;-144.47;96.02
31585;BME280;18191;51.288;12.390;2023-02-12T17:43:39;49197.81;;;-144.47;96.18
31585;BME280;18191;51.288;12.390;2023-02-12T17:48:29;49167.97;;;-144.47;95.79
31585;BME280;18191;51.288;12.390;2023-02-12T17:53:19;49187.88;;;-144.47;95.90
31585;BME280;18191;51.288;12.390;2023-02-12T17:58:09;49171.97;;;-144.47;95.83
31585;BME280;18191;51.288;12.390;2023-02-12T18:03:00;49164.00;;;-144.47;96.29
31585;BME280;18191;51.288;12.390;2023-02-12T18:07:50;49187.88;;;-144.47;95.95
31585;BME280;18191;51.288;12.390;2023-02-12T18:12:40;49169.97;;;-144.47;96.33
31585;BME280;18191;51.288;12.390;2023-02-12T18:17:30;49183.91;;;-144.47;96.21
31585;BME280;18191;51.288;12.390;2023-02-12T18:22:21;49199.81;;;-144.47;96.39
31585;BME280;18191;51.288;12.390;2023-02-12T18:27:11;49193.84;;;-144.47;96.25
31585;BME280;18191;51.288;12.390;2023-02-12T18:32:02;49195.84;;;-144.47;96.04
31585;BME280;18191;51.288;12.390;2023-02-12T18:36:52;49209.75;;;-144.47;96.74
31585;BME280;18191;51.288;12.390;2023-02-12T18:41:42;49189.88;;;-144.47;97.06
31585;BME280;18191;51.288;12.390;2023-02-12T18:46:32;49195.84;;;-144.47;97.15
31585;BME280;18191;51.288;12.390;2023-02-12T18:51:23;49203.78;;;-144.47;97.54
31585;BME280;18191;51.288;12.390;2023-02-12T18:56:14;49203.78;;;-144.47;97.59
31585;BME280;18191;51.288;12.390;2023-02-12T19:01:12;49215.72;;;-144.47;97.33
31585;BME280;18191;51.288;12.390;2023-02-12T19:06:03;49211.75;;;-144.47;97.04
31585;BME280;18191;51.288;12.390;2023-02-12T19:10:53;49195.84;;;-144.47;97.24
31585;BME280;18191;51.288;12.390;2023-02-12T19:15:44;49183.91;;;-144.47;97.51
31585;BME280;18191;51.288;12.390;2023-02-12T19:20:38;49225.66;;;-144.47;97.22
31585;BME280;18191;51.288;12.390;2023-02-12T19:25:28;49203.78;;;-144.47;97.30
31585;BME280;18191;51.288;12.390;2023-02-12T19:30:18;49183.91;;;-144.47;96.92
31585;BME280;18191;51.288;12.390;2023-02-12T19:35:08;49213.75;;;-144.47;97.15
31585;BME280;18191;51.288;12.390;2023-02-12T19:39:58;49179.91;;;-144.47;97.36
31585;BME280;18191;51.288;12.390;2023-02-12T19:44:48;49197.81;;;-144.47;97.65
31585;BME280;18191;51.288;12.390;2023-02-12T19:49:39;49195.84;;;-144.47;97.62
31585;BME280;18191;51.288;12.390;2023-02-12T19:54:30;49215.72;;;-144.47;97.51
31585;BME280;18191;51.288;12.390;2023-02-12T19:59:21;49197.81;;;-144.47;97.43
31585;BME280;18191;51.288;12.390;2023-02-12T20:04:12;49191.84;;;-144.47;97.49
31585;BME280;18191;51.288;12.390;2023-02-12T20:09:04;49203.78;;;-144.47;96.01
31585;BME280;18191;51.288;12.390;2023-02-12T20:13:55;49191.84;;;-144.47;96.88
31585;BME280;18191;51.288;12.390;2023-02-12T20:18:46;49207.78;;;-144.47;97.31
31585;BME280;18191;51.288;12.390;2023-02-12T20:23:37;49185.88;;;-144.47;97.05
31585;BME280;18191;51.288;12.390;2023-02-12T20:28:27;49225.66;;;-144.47;97.37
31585;BME280;18191;51.288;12.390;2023-02-12T20:33:18;49187.88;;;-144.47;97.57
31585;BME280;18191;51.288;12.390;2023-02-12T20:38:08;49179.91;;;-144.47;97.68
31585;BME280;18191;51.288;12.390;2023-02-12T20:42:58;49183.91;;;-144.47;97.61
31585;BME280;18191;51.288;12.390;2023-02-12T20:47:49;49191.84;;;-144.47;97.71
31585;BME280;18191;51.288;12.390;2023-02-12T20:52:39;49207.78;;;-144.47;97.65
31585;BME280;18191;51.288;12.390;2023-02-12T20:57:30;49189.88;;;-144.47;97.10
31585;BME280;18191;51.288;12.390;2023-02-12T21:02:23;49207.78;;;-144.47;96.84
31585;BME280;18191;51.288;12.390;2023-02-12T21:07:13;49203.78;;;-144.47;97.00
31585;BME280;18191;51.288;12.390;2023-02-12T21:12:04;49211.75;;;-144.47;97.24
31585;BME280;18191;51.288;12.390;2023-02-12T21:16:54;49187.88;;;-144.47;97.51
31585;BME280;18191;51.288;12.390;2023-02-12T21:21:44;49183.91;;;-144.47;97.31
31585;BME280;18191;51.288;12.390;2023-02-12T21:26:35;49167.97;;;-144.47;97.05
31585;BME280;18191;51.288;12.390;2023-02-12T21:31:29;49179.91;;;-144.47;97.22
31585;BME280;18191;51.288;12.390;2023-02-12T21:36:20;49203.78;;;-144.47;97.21
31585;BME280;18191;51.288;12.390;2023-02-12T21:41:15;49199.81;;;-144.47;97.28
31585;BME280;18191;51.288;12.390;2023-02-12T21:46:05;49191.84;;;-144.47;97.05
31585;BME280;18191;51.288;12.390;2023-02-12T21:50:56;49219.72;;;-144.47;96.42
31585;BME280;18191;51.288;12.390;2023-02-12T21:55:46;49191.84;;;-144.47;95.85
31585;BME280;18191;51.288;12.390;2023-02-12T22:00:36;49195.84;;;-144.47;95.91
31585;BME280;18191;51.288;12.390;2023-02-12T22:05:29;49231.63;;;-144.47;96.33
31585;BME280;18191;51.288;12.390;2023-02-12T22:10:19;49166.00;;;-144.47;96.36
31585;BME280;18191;51.288;12.390;2023-02-12T22:15:09;49179.91;;;-144.47;96.23
31585;BME280;18191;51.288;12.390;2023-02-12T22:20:00;49197.81;;;-144.47;96.23
31585;BME280;18191;51.288;12.390;2023-02-12T22:24:50;49203.78;;;-144.47;95.37
31585;BME280;18191;51.288;12.390;2023-02-12T22:29:40;49229.66;;;-144.47;96.05
31585;BME280;18191;51.288;12.390;2023-02-12T22:34:30;49164.00;;;-144.47;96.37
31585;BME280;18191;51.288;12.390;2023-02-12T22:39:20;49203.78;;;-144.47;95.98
31585;BME280;18191;51.288;12.390;2023-02-12T22:44:11;49211.75;;;-144.47;96.34
31585;BME280;18191;51.288;12.390;2023-02-12T22:49:02;49171.97;;;-144.47;95.46
31585;BME280;18191;51.288;12.390;2023-02-12T22:53:52;49225.66;;;-144.47;95.48
31585;BME280;18191;51.288;12.390;2023-02-12T22:58:42;49207.78;;;-144.47;95.19
31585;BME280;18191;51.288;12.390;2023-02-12T23:03:33;49215.72;;;-144.47;95.40
31585;BME280;18191;51.288;12.390;2023-02-12T23:08:26;49193.84;;;-144.47;95.07
31585;BME280;18191;51.288;12.390;2023-02-12T23:13:16;49175.94;;;-144.47;93.78
31585;BME280;18191;51.288;12.390;2023-02-12T23:18:06;49195.84;;;-144.47;94.67
31585;BME280;18191;51.288;12.390;2023-02-12T23:22:56;49251.53;;;-144.47;94.90
31585;BME280;18191;51.288;12.390;2023-02-12T23:27:46;49199.81;;;-144.47;95.00
31585;BME280;18191;51.288;12.390;2023-02-12T23:32:37;49207.78;;;-144.47;94.96
31585;BME280;18191;51.288;12.390;2023-02-12T23:37:27;49179.91;;;-144.47;94.43
31585;BME280;18191;51.288;12.390;2023-02-12T23:42:17;49223.69;;;-144.47;94.70
31585;BME280;18191;51.288;12.390;2023-02-12T23:47:08;49187.88;;;-144.47;94.87
31585;BME280;18191;51.288;12.390;2023-02-12T23:51:58;49205.78;;;-144.47;95.28
31585;BME280;18191;51.288;12.390;2023-02-12T23:56:48;49217.72;;;-144.47;95.12
